Wetterdaten: aktuell Donnerstag, 25.04.2019 21:45
Datum Zeit Temp. A. Feuchte A. Regen Sonnenschein Taupunkt
25.04.2019 21:45 14,0 C 61 % 0,0 l/m 0 min 6,6 C
25.04.2019 20:45 15,5 C 56 % 0,0 l/m 0 min 6,8 C
25.04.2019 19:45 18,5 C 48 % 0,0 l/m 0 min 7,3 C
25.04.2019 18:45 20,6 C 46 % 0,0 l/m 0 min 8,6 C
25.04.2019 17:45 21,7 C 41 % 0,0 l/m 0 min 7,9 C
25.04.2019 16:45 21,1 C 42 % 0,0 l/m 0 min 7,7 C
25.04.2019 15:45 20,5 C 43 % 0,0 l/m 0 min 7,5 C
25.04.2019 14:45 21,2 C 41 % 0,0 l/m 0 min 7,4 C
25.04.2019 13:45 20,1 C 47 % 0,0 l/m 0 min 8,4 C
25.04.2019 12:45 18,1 C 50 % 0,0 l/m 0 min 7,5 C
25.04.2019 11:45 15,4 C 58 % 0,0 l/m 0 min 7,2 C
25.04.2019 10:44 14,2 C 63 % 0,0 l/m 0 min 7,3 C
25.04.2019 09:45 13,0 C 66 % 0,0 l/m 0 min 6,8 C
25.04.2019 08:45 10,7 C 71 % 0,0 l/m 0 min 5,7 C
25.04.2019 07:39 8,8 C 82 % 0,0 l/m 0 min 5,9 C
25.04.2019 06:39 6,0 C 86 % 0,0 l/m 0 min 3,8 C
25.04.2019 05:39 6,2 C 84 % 0,0 l/m 0 min 3,7 C
25.04.2019 04:39 7,1 C 85 % 0,0 l/m 0 min 4,8 C
25.04.2019 03:39 7,0 C 87 % 0,0 l/m 0 min 5,0 C
25.04.2019 02:39 6,4 C 86 % 0,0 l/m 0 min 4,2 C
25.04.2019 01:39 7,5 C 84 % 0,0 l/m 0 min 5,0 C
25.04.2019 00:39 8,9 C 83 % 0,0 l/m 0 min 6,2 C
25.04.2019 00:09 8,9 C 83 % 0,0 l/m 0 min 6,2 C
_ Min-Zeit 06:24 18:00 - - 05:54
Minimum _ 5,9 C 41 % - - 3,7 C
_ Max-Zeit 18:15 07:09 21:45 21:45 18:45
Maximum _ 21,9 C 87 % 0,0 l/m 0 min 8,6 C
Durchschnitt _ 13,7 C 64 % #0,0 l/m #0 min. 6,4 C